Aérodrome :
LOGIN :

S'inscrire | Disclaimer

   EN    FR    IT 

 










Légende :    VFR   VFR Marginal   IFR   IFR Intensif   IFR Très Intensif
Visi : 
Plafond : 
>= 8 km
>= 3000ft
5 à 8 km
1000 à 3000 ft
1500m à 5 km
500 à 1000 ft
800 à 1500m
200 à 500 ft
< 800m
< 200 ft
Symboles :   Orages  Brouillard  Fortes neiges  Fortes précipitations  Vent > 20 kt
SIGMETs :   Divers  Orages  Givrage  Turbulence  Onde Orograph.  Cendres Volcan.







- Altitude de l'aérodrome : 19 ft
- Code IATA : LCY
- Voir les cartes d'approche


EGLC - London City

DERNIER METAR :
  • 210950Z AUTO 15004KT 7000 -RASN SCT019 OVC028 03/01 Q1016

METARs EXPIRÉS :
  • 210920Z AUTO 20004KT 6000 -RA FEW020 SCT027 BKN038 03/01 Q1016
  • 210850Z AUTO 20004KT 6000 FEW031 SCT039 BKN047 03/01 Q1016
  • 210820Z AUTO 23004KT 6000 FEW043 03/01 Q1016
  • 210750Z AUTO 21005KT 6000 NCD 03/01 Q1016
  • 210720Z AUTO 20003KT 7000 NCD 03/01 Q1015

TAF TAF EGLC
Valide du 21 à 09h jusqu'au 21 à 18h UTC


210815Z 2109/2118 24004KT 7000 FEW012
BECMG 2109/2111 15010KT BKN010
TEMPO 2110/2118 3000 RADZ BKN006
PROB30
TEMPO 2111/2118 BKN004
ATIS : +44 20 7646 0224
Pas de NOTAMs connus pour ce terrain.
1 SIGMET publié pour la FIR London (EGTT) :
 
Givrage fort
EGTT SIGMET 03 VALID 210715/211115 EGRR
EGTT LONDON FIR SEV ICE FCST WI N5220 W00530 - N5500 W00530 - N5500 W00303 - N5304 W00042 - N5004 W00223 - N5204 W00600 - N5220 W00530 FL020/140 MOV ESE 15KT NC=



MET'MAP, la Météo Aéronautique d'un coup d'oeil ! - Copyright ORBIFLY Décembre 2007 - Disclaimer

ORBIFLY MET'MAP TEAM :

Programmation & Développement : Alexandra Zaïnal
Conception & Développement : Baudouin d'Aumeries
Co-Programmation & Développement : Marc-Olivier Méhu
Soutien technique & logistique : Manuel Goepfert

Contact : metmap@orbifly.com




SOURCES & CREDITS :

   NOAA